createdAt,value
2023-04-12T00:00:06.935Z,983.90
2023-04-12T00:01:06.855Z,983.87
2023-04-12T00:02:13.194Z,983.85
2023-04-12T00:03:06.779Z,983.82
2023-04-12T00:04:06.824Z,983.84
2023-04-12T00:05:06.636Z,983.82
2023-04-12T00:06:06.446Z,983.82
2023-04-12T00:07:06.361Z,983.76
2023-04-12T00:08:06.289Z,983.76
2023-04-12T00:09:06.202Z,983.77
2023-04-12T00:10:06.118Z,983.73
2023-04-12T00:11:06.038Z,983.77
2023-04-12T00:12:05.956Z,983.72
2023-04-12T00:13:05.875Z,983.72
2023-04-12T00:14:05.837Z,983.76
2023-04-12T00:15:07.938Z,983.73
2023-04-12T00:16:05.738Z,983.71
2023-04-12T00:17:05.552Z,983.76
2023-04-12T00:18:05.529Z,983.74
2023-04-12T00:19:05.640Z,983.67
2023-04-12T00:20:05.309Z,983.74
2023-04-12T00:21:05.242Z,983.76
2023-04-12T00:22:05.154Z,983.75
2023-04-12T00:23:05.065Z,983.67
2023-04-12T00:24:04.991Z,983.68
2023-04-12T00:25:04.912Z,983.63
2023-04-12T00:26:04.825Z,983.65
2023-04-12T00:27:04.742Z,983.58
2023-04-12T00:28:04.660Z,983.58
2023-04-12T00:29:04.585Z,983.55
2023-04-12T00:30:04.497Z,983.54
2023-04-12T00:31:04.451Z,983.56
2023-04-12T00:32:04.584Z,983.51
2023-04-12T00:33:04.308Z,983.52
2023-04-12T00:34:04.191Z,983.50
2023-04-12T00:35:04.100Z,983.54
2023-04-12T00:36:04.019Z,983.49
2023-04-12T00:37:03.926Z,983.55
2023-04-12T00:38:04.212Z,983.55
2023-04-12T00:39:03.771Z,983.55
2023-04-12T00:40:03.684Z,983.59
2023-04-12T00:41:03.609Z,983.56
2023-04-12T00:42:03.523Z,983.56
2023-04-12T00:43:03.438Z,983.58
2023-04-12T00:44:03.365Z,983.58
2023-04-12T00:45:03.309Z,983.63
2023-04-12T00:46:03.196Z,983.61
2023-04-12T00:47:03.246Z,983.63
2023-04-12T00:48:03.163Z,983.62
2023-04-12T00:49:02.956Z,983.58
2023-04-12T00:50:02.899Z,983.62
2023-04-12T00:51:02.789Z,983.52
2023-04-12T00:52:02.716Z,983.51
2023-04-12T00:53:02.726Z,983.46
2023-04-12T00:54:02.549Z,983.44
2023-04-12T00:55:02.465Z,983.47
2023-04-12T00:56:02.539Z,983.50
2023-04-12T00:57:02.325Z,983.47
2023-04-12T00:58:02.220Z,983.50
2023-04-12T00:59:02.175Z,983.51
2023-04-12T01:00:02.061Z,983.46
2023-04-12T01:01:02.033Z,983.47
2023-04-12T01:02:02.103Z,983.46
2023-04-12T01:03:01.943Z,983.46
2023-04-12T01:04:01.824Z,983.45
2023-04-12T01:05:01.656Z,983.47
2023-04-12T01:06:01.605Z,983.41
2023-04-12T01:07:01.516Z,983.43
2023-04-12T01:08:01.414Z,983.46
2023-04-12T01:09:01.333Z,983.47
2023-04-12T01:10:01.596Z,983.45
2023-04-12T01:11:01.162Z,983.42
2023-04-12T01:12:01.083Z,983.42
2023-04-12T01:13:01.009Z,983.33
2023-04-12T01:14:00.924Z,983.25
2023-04-12T01:15:00.837Z,983.24
2023-04-12T01:16:00.860Z,983.21
2023-04-12T01:17:00.673Z,983.19
2023-04-12T01:18:00.698Z,983.18
2023-04-12T01:19:00.575Z,983.18
2023-04-12T01:20:00.437Z,983.23
2023-04-12T01:21:00.351Z,983.19
2023-04-12T01:22:00.292Z,983.20
2023-04-12T01:23:00.187Z,983.21
2023-04-12T01:24:00.124Z,983.22
2023-04-12T01:25:00.055Z,983.21
2023-04-12T01:25:59.976Z,983.19
2023-04-12T01:26:59.861Z,983.20
2023-04-12T01:27:59.794Z,983.15
2023-04-12T01:28:59.697Z,983.15
2023-04-12T01:29:59.618Z,983.14
2023-04-12T01:30:59.536Z,983.13
2023-04-12T01:31:59.527Z,983.07
2023-04-12T01:32:59.391Z,983.09
2023-04-12T01:33:59.506Z,983.03
2023-04-12T01:34:59.250Z,983.05
2023-04-12T01:35:59.149Z,983.05
2023-04-12T01:36:59.063Z,983.04
2023-04-12T01:37:59.341Z,983.04
2023-04-12T01:38:58.896Z,983.00
2023-04-12T01:39:58.817Z,982.94
2023-04-12T01:40:58.722Z,982.95
2023-04-12T01:41:58.646Z,982.88
2023-04-12T01:42:58.560Z,982.92
2023-04-12T01:43:58.817Z,982.84
2023-04-12T01:44:58.396Z,982.83
2023-04-12T01:45:58.395Z,982.88
2023-04-12T01:46:58.437Z,982.82
2023-04-12T01:47:58.206Z,982.76
2023-04-12T01:48:58.073Z,982.82
2023-04-12T01:49:57.992Z,982.82
2023-04-12T01:50:57.917Z,982.78
2023-04-12T01:51:57.831Z,982.76
2023-04-12T01:52:57.743Z,982.76
2023-04-12T01:53:57.908Z,982.74
2023-04-12T01:54:57.613Z,982.67
2023-04-12T01:55:57.500Z,982.72
2023-04-12T01:56:57.418Z,982.67
2023-04-12T01:57:57.335Z,982.63
2023-04-12T01:58:57.271Z,982.64
2023-04-12T01:59:57.176Z,982.66
2023-04-12T02:00:57.173Z,982.65
2023-04-12T02:01:57.097Z,982.64
2023-04-12T02:02:57.100Z,982.62
2023-04-12T02:03:57.279Z,982.60
2023-04-12T02:04:56.795Z,982.58
2023-04-12T02:05:56.677Z,982.58
2023-04-12T02:06:56.606Z,982.54
2023-04-12T02:07:56.520Z,982.55
2023-04-12T02:08:56.435Z,982.56
2023-04-12T02:09:56.370Z,982.49
2023-04-12T02:10:56.375Z,982.48
2023-04-12T02:11:56.186Z,982.49
2023-04-12T02:12:56.115Z,982.44
2023-04-12T02:13:56.234Z,982.37
2023-04-12T02:14:55.941Z,982.35
2023-04-12T02:15:55.858Z,982.37
2023-04-12T02:16:55.845Z,982.36
2023-04-12T02:17:55.689Z,982.32
2023-04-12T02:18:55.611Z,982.29
2023-04-12T02:19:55.559Z,982.26
2023-04-12T02:20:55.455Z,982.32
2023-04-12T02:21:55.365Z,982.33
2023-04-12T02:22:55.295Z,982.33
2023-04-12T02:23:55.439Z,982.29
2023-04-12T02:24:55.118Z,982.26
2023-04-12T02:25:55.066Z,982.25
2023-04-12T02:26:55.030Z,982.23
2023-04-12T02:27:54.871Z,982.19
2023-04-12T02:28:54.787Z,982.19
2023-04-12T02:29:54.707Z,982.20
2023-04-12T02:30:54.716Z,982.21
2023-04-12T02:31:54.541Z,982.21
2023-04-12T02:32:54.463Z,982.15
2023-04-12T02:33:54.611Z,982.18
2023-04-12T02:34:54.355Z,982.14
2023-04-12T02:35:54.266Z,982.14
2023-04-12T02:36:54.146Z,982.06
2023-04-12T02:37:54.048Z,982.06
2023-04-12T02:38:53.965Z,982.00
2023-04-12T02:39:53.884Z,982.00
2023-04-12T02:40:53.800Z,981.96
2023-04-12T02:41:53.765Z,981.92
2023-04-12T02:42:53.637Z,981.92
2023-04-12T02:43:53.656Z,981.84
2023-04-12T02:44:53.470Z,981.82
2023-04-12T02:45:53.419Z,981.81
2023-04-12T02:46:53.306Z,981.73
2023-04-12T02:47:53.271Z,981.74
2023-04-12T02:48:53.143Z,981.73
2023-04-12T02:49:53.060Z,981.73
2023-04-12T02:50:52.980Z,981.65
2023-04-12T02:51:52.898Z,981.65
2023-04-12T02:52:52.814Z,981.66
2023-04-12T02:53:52.733Z,981.66
2023-04-12T02:54:52.689Z,981.67
2023-04-12T02:55:52.568Z,981.62
2023-04-12T02:56:52.482Z,981.65
2023-04-12T02:57:52.418Z,981.67
2023-04-12T02:58:52.317Z,981.65
2023-04-12T02:59:52.235Z,981.62
2023-04-12T03:00:52.512Z,981.57
2023-04-12T03:01:52.154Z,981.54
2023-04-12T03:02:52.274Z,981.51
2023-04-12T03:03:51.929Z,981.53
2023-04-12T03:04:51.826Z,981.48
2023-04-12T03:05:51.740Z,981.46
2023-04-12T03:06:51.661Z,981.45
2023-04-12T03:07:51.592Z,981.40
2023-04-12T03:08:51.495Z,981.41
2023-04-12T03:09:51.411Z,981.38
2023-04-12T03:10:51.329Z,981.38
2023-04-12T03:11:51.248Z,981.36
2023-04-12T03:12:51.166Z,981.31
2023-04-12T03:13:51.101Z,981.31
2023-04-12T03:14:51.003Z,981.26
2023-04-12T03:15:50.963Z,981.29
2023-04-12T03:16:50.836Z,981.26
2023-04-12T03:17:50.824Z,981.29
2023-04-12T03:18:50.670Z,981.28
2023-04-12T03:19:50.606Z,981.22
2023-04-12T03:20:50.502Z,981.22
2023-04-12T03:21:50.453Z,981.20
2023-04-12T03:22:50.340Z,981.22
2023-04-12T03:23:50.259Z,981.19
2023-04-12T03:24:50.223Z,981.20
2023-04-12T03:25:50.098Z,981.17
2023-04-12T03:26:50.006Z,981.20
2023-04-12T03:27:49.926Z,981.24
2023-04-12T03:28:49.843Z,981.21
2023-04-12T03:29:49.801Z,981.22
2023-04-12T03:30:49.739Z,981.22
2023-04-12T03:31:50.000Z,981.20
2023-04-12T03:32:49.594Z,981.19
2023-04-12T03:33:49.591Z,981.16
2023-04-12T03:34:49.353Z,981.13
2023-04-12T03:35:49.276Z,981.14
2023-04-12T03:36:49.216Z,981.13
2023-04-12T03:37:49.101Z,981.08
2023-04-12T03:38:49.019Z,981.05
2023-04-12T03:39:48.937Z,980.98
2023-04-12T03:40:48.851Z,980.98
2023-04-12T03:41:48.773Z,980.91
2023-04-12T03:42:48.743Z,980.86
2023-04-12T03:43:48.604Z,980.91
2023-04-12T03:44:48.528Z,980.91
2023-04-12T03:45:48.457Z,980.86
2023-04-12T03:46:48.451Z,980.88
2023-04-12T03:47:48.368Z,980.85
2023-04-12T03:48:48.193Z,980.86
2023-04-12T03:49:58.777Z,980.85
2023-04-12T03:50:48.030Z,980.81
2023-04-12T03:51:47.978Z,980.77
2023-04-12T03:52:47.866Z,980.73
2023-04-12T03:53:47.776Z,980.73
2023-04-12T03:54:47.703Z,980.74
2023-04-12T03:55:47.616Z,980.72
2023-04-12T03:56:47.550Z,980.69
2023-04-12T03:57:47.452Z,980.66
2023-04-12T03:58:47.375Z,980.64
2023-04-12T03:59:47.287Z,980.63
2023-04-12T04:00:47.202Z,980.64
2023-04-12T04:01:47.209Z,980.61
2023-04-12T04:02:47.078Z,980.60
2023-04-12T04:03:47.070Z,980.61
2023-04-12T04:04:46.911Z,980.60
2023-04-12T04:05:46.792Z,980.55
2023-04-12T04:06:46.707Z,980.49
2023-04-12T04:07:46.627Z,980.48
2023-04-12T04:08:46.542Z,980.46
2023-04-12T04:09:46.460Z,980.48
2023-04-12T04:10:46.477Z,980.45
2023-04-12T04:11:46.292Z,980.44
2023-04-12T04:12:46.247Z,980.44
2023-04-12T04:13:46.331Z,980.49
2023-04-12T04:14:46.061Z,980.45
2023-04-12T04:15:45.961Z,980.43
2023-04-12T04:16:45.957Z,980.40
2023-04-12T04:17:45.857Z,980.36
2023-04-12T04:18:45.717Z,980.31
2023-04-12T04:19:45.631Z,980.28
2023-04-12T04:20:45.553Z,980.24
2023-04-12T04:21:45.478Z,980.26
2023-04-12T04:22:45.388Z,980.18
2023-04-12T04:23:45.347Z,980.17
2023-04-12T04:24:45.221Z,980.16
2023-04-12T04:25:45.144Z,980.12
2023-04-12T04:26:45.053Z,980.16
2023-04-12T04:27:45.102Z,980.13
2023-04-12T04:28:44.910Z,980.13
2023-04-12T04:29:44.808Z,980.06
2023-04-12T04:30:44.727Z,980.03
2023-04-12T04:31:44.729Z,979.97
2023-04-12T04:32:44.601Z,979.94
2023-04-12T04:33:44.646Z,979.91
2023-04-12T04:34:44.396Z,979.89
2023-04-12T04:35:44.370Z,979.88
2023-04-12T04:36:44.247Z,979.87
2023-04-12T04:37:44.158Z,979.81
2023-04-12T04:38:44.069Z,979.79
2023-04-12T04:39:44.040Z,979.73
2023-04-12T04:40:43.911Z,979.68
2023-04-12T04:41:43.825Z,979.69
2023-04-12T04:42:43.742Z,979.67
2023-04-12T04:43:43.654Z,979.65
2023-04-12T04:44:43.579Z,979.68
2023-04-12T04:45:43.574Z,979.70
2023-04-12T04:46:43.414Z,979.67
2023-04-12T04:47:43.353Z,979.71
2023-04-12T04:48:43.241Z,979.69
2023-04-12T04:49:43.425Z,979.67
2023-04-12T04:50:43.074Z,979.64
2023-04-12T04:51:43.012Z,979.63
2023-04-12T04:52:42.910Z,979.60
2023-04-12T04:53:42.827Z,979.63
2023-04-12T04:54:42.742Z,979.56
2023-04-12T04:55:42.655Z,979.53
2023-04-12T04:56:42.582Z,979.51
2023-04-12T04:57:42.491Z,979.54
2023-04-12T04:58:42.411Z,979.48
2023-04-12T04:59:42.326Z,979.49
2023-04-12T05:00:42.245Z,979.49
2023-04-12T05:01:42.289Z,979.48
2023-04-12T05:02:42.256Z,979.52
2023-04-12T05:03:42.091Z,979.54
2023-04-12T05:04:41.913Z,979.55
2023-04-12T05:05:41.841Z,979.56
2023-04-12T05:06:41.740Z,979.53
2023-04-12T05:07:41.671Z,979.52
2023-04-12T05:08:41.577Z,979.53
2023-04-12T05:09:41.642Z,979.47
2023-04-12T05:10:41.411Z,979.51
2023-04-12T05:11:41.398Z,979.47
2023-04-12T05:12:41.242Z,979.47
2023-04-12T05:13:41.406Z,979.38
2023-04-12T05:14:47.227Z,979.38
2023-04-12T05:15:41.053Z,979.36
2023-04-12T05:16:40.932Z,979.34
2023-04-12T05:17:40.942Z,979.33
2023-04-12T05:18:40.755Z,979.33
2023-04-12T05:19:40.664Z,979.33
2023-04-12T05:20:40.578Z,979.28
2023-04-12T05:21:40.519Z,979.31
2023-04-12T05:22:40.417Z,979.24
2023-04-12T05:23:40.330Z,979.24
2023-04-12T05:24:40.278Z,979.19
2023-04-12T05:25:40.162Z,979.22
2023-04-12T05:26:40.230Z,979.14
2023-04-12T05:27:39.997Z,979.16
2023-04-12T05:28:39.912Z,979.11
2023-04-12T05:29:39.840Z,979.11
2023-04-12T05:30:39.774Z,979.09
2023-04-12T05:31:39.694Z,979.07
2023-04-12T05:32:39.608Z,979.03
2023-04-12T05:33:39.502Z,978.99
2023-04-12T05:34:39.467Z,978.98
2023-04-12T05:35:39.395Z,978.94
2023-04-12T05:36:39.298Z,978.90
2023-04-12T05:37:39.193Z,978.86
2023-04-12T05:38:39.080Z,978.76
2023-04-12T05:39:39.003Z,978.79
2023-04-12T05:40:38.918Z,978.81
2023-04-12T05:41:38.831Z,978.83
2023-04-12T05:42:38.753Z,978.79
2023-04-12T05:43:38.701Z,978.76
2023-04-12T05:45:38.703Z,978.73
2023-04-12T05:46:38.483Z,978.66
2023-04-12T05:47:38.401Z,978.65
2023-04-12T05:48:38.255Z,978.54
2023-04-12T05:49:38.510Z,978.55
2023-04-12T05:51:41.028Z,978.60
2023-04-12T05:52:37.950Z,978.60
2023-04-12T05:53:38.133Z,978.59
2023-04-12T05:54:37.811Z,978.59
2023-04-12T05:55:38.270Z,978.61
2023-04-12T05:56:37.596Z,978.55
2023-04-12T05:57:38.596Z,978.51
2023-04-12T05:58:37.743Z,978.52
2023-04-12T05:59:37.334Z,978.52
2023-04-12T06:00:37.255Z,978.43
2023-04-12T06:01:37.221Z,978.44
2023-04-12T06:02:37.352Z,978.43
2023-04-12T06:03:37.094Z,978.38
2023-04-12T06:04:49.389Z,978.39
2023-04-12T06:05:36.950Z,978.35
2023-04-12T06:08:36.837Z,978.32
2023-04-12T06:10:36.714Z,978.29
2023-04-12T06:11:36.376Z,978.27
2023-04-12T06:12:37.205Z,978.23
2023-04-12T06:13:36.170Z,978.20
2023-04-12T06:14:36.125Z,978.18
2023-04-12T06:16:36.571Z,978.15
2023-04-12T06:18:35.790Z,978.12
2023-04-12T06:21:35.854Z,977.98
2023-04-12T06:23:35.344Z,977.96
2023-04-12T06:24:35.261Z,977.95
2023-04-12T06:25:35.186Z,977.97
2023-04-12T06:26:39.644Z,977.95
2023-04-12T06:27:35.009Z,977.91
2023-04-12T06:28:34.929Z,977.88
2023-04-12T06:29:34.843Z,977.85
2023-04-12T06:30:34.761Z,977.80
2023-04-12T06:31:34.949Z,977.84
2023-04-12T06:32:34.604Z,977.78
2023-04-12T06:33:34.510Z,977.77
2023-04-12T06:34:34.991Z,977.72
2023-04-12T06:35:34.362Z,977.79
2023-04-12T06:36:34.266Z,977.66
2023-04-12T06:37:34.186Z,977.65
2023-04-12T06:38:34.100Z,977.64
2023-04-12T06:39:34.015Z,977.65
2023-04-12T06:40:33.944Z,977.59
2023-04-12T06:41:34.145Z,977.69
2023-04-12T06:42:33.793Z,977.68
2023-04-12T06:43:33.684Z,977.62
2023-04-12T06:44:33.602Z,977.60
2023-04-12T06:45:33.551Z,977.65
2023-04-12T06:46:33.451Z,977.67
2023-04-12T06:47:33.407Z,977.64
2023-04-12T06:48:33.271Z,977.67
2023-04-12T06:49:33.186Z,977.63
2023-04-12T06:50:33.414Z,977.57
2023-04-12T06:51:33.058Z,977.52
2023-04-12T06:52:32.944Z,977.55
2023-04-12T06:53:32.852Z,977.49
2023-04-12T06:54:32.776Z,977.46
2023-04-12T06:55:32.690Z,977.52
2023-04-12T06:56:32.616Z,977.51
2023-04-12T06:57:32.576Z,977.47
2023-04-12T06:58:32.469Z,977.53
2023-04-12T06:59:32.364Z,977.47
2023-04-12T07:00:32.320Z,977.46
2023-04-12T07:01:32.411Z,977.46
2023-04-12T07:02:32.766Z,977.47
2023-04-12T07:03:32.651Z,977.48
2023-04-12T07:04:31.956Z,977.48
2023-04-12T07:05:32.071Z,977.41
2023-04-12T07:06:31.793Z,977.42
2023-04-12T07:07:31.711Z,977.37
2023-04-12T07:08:31.624Z,977.41
2023-04-12T07:09:31.544Z,977.38
2023-04-12T07:10:31.459Z,977.38
2023-04-12T07:11:31.402Z,977.35
2023-04-12T07:12:31.314Z,977.31
2023-04-12T07:13:31.212Z,977.31
2023-04-12T07:14:31.185Z,977.31
2023-04-12T07:15:31.050Z,977.34
2023-04-12T07:16:31.052Z,977.37
2023-04-12T07:17:30.903Z,977.29
2023-04-12T07:18:30.802Z,977.33
2023-04-12T07:19:30.727Z,977.33
2023-04-12T07:20:30.639Z,977.28
2023-04-12T07:21:30.559Z,977.21
2023-04-12T07:35:20.025Z,977.07
2023-04-12T07:36:19.966Z,977.01
2023-04-12T07:37:19.824Z,977.00
2023-04-12T07:38:19.742Z,977.06
2023-04-12T07:39:19.684Z,977.03
2023-04-12T07:40:19.598Z,976.93
2023-04-12T07:41:19.900Z,976.89
2023-04-12T07:42:19.431Z,976.78
2023-04-12T07:43:19.335Z,976.80
2023-04-12T07:44:19.257Z,976.71
2023-04-12T07:45:19.220Z,976.70
2023-04-12T07:46:19.397Z,976.69
2023-04-12T07:47:19.009Z,976.69
2023-04-12T07:48:18.920Z,976.71
2023-04-12T07:49:18.838Z,976.64
2023-04-12T07:50:18.756Z,976.59
2023-04-12T07:51:18.864Z,976.59
2023-04-12T07:52:18.605Z,976.60
2023-04-12T07:53:18.745Z,976.53
2023-04-12T07:54:18.466Z,976.49
2023-04-12T07:55:18.379Z,976.42
2023-04-12T07:56:18.267Z,976.36
2023-04-12T07:57:18.241Z,976.33
2023-04-12T07:58:18.140Z,976.30
2023-04-12T07:59:18.157Z,976.32
2023-04-12T08:00:17.995Z,976.31
2023-04-12T08:01:17.887Z,976.27
2023-04-12T08:02:17.843Z,976.25
2023-04-12T08:03:17.948Z,976.19
2023-04-12T08:04:17.935Z,976.17
2023-04-12T08:05:17.600Z,976.21
2023-04-12T08:06:17.756Z,976.09
2023-04-12T08:07:17.600Z,976.08
2023-04-12T08:08:17.298Z,976.05
2023-04-12T08:09:17.226Z,976.03
2023-04-12T08:10:17.119Z,976.02
2023-04-12T08:11:17.045Z,976.02
2023-04-12T08:12:16.954Z,976.00
2023-04-12T08:13:16.880Z,976.01
2023-04-12T08:14:17.090Z,975.99
2023-04-12T08:15:16.712Z,976.04
2023-04-12T08:16:16.664Z,976.01
2023-04-12T08:17:16.545Z,976.00
2023-04-12T08:18:16.462Z,975.99
2023-04-12T08:19:16.397Z,975.94
2023-04-12T08:20:16.300Z,975.97
2023-04-12T08:21:16.224Z,976.00
2023-04-12T08:22:16.138Z,975.98
2023-04-12T08:23:16.278Z,975.93
2023-04-12T08:24:15.983Z,975.92
2023-04-12T08:25:15.947Z,975.91
2023-04-12T08:26:15.820Z,975.89
2023-04-12T08:27:15.732Z,975.91
2023-04-12T08:28:15.652Z,975.88
2023-04-12T08:29:15.573Z,975.88
2023-04-12T08:30:15.485Z,975.88
2023-04-12T08:31:15.431Z,975.93
2023-04-12T08:32:15.332Z,975.90
2023-04-12T08:33:15.258Z,975.87
2023-04-12T08:34:15.159Z,975.87
2023-04-12T08:35:15.164Z,975.88
2023-04-12T08:36:15.155Z,975.81
2023-04-12T08:37:14.912Z,975.89
2023-04-12T08:38:14.831Z,975.86
2023-04-12T08:39:14.776Z,975.81
2023-04-12T08:40:14.672Z,975.85
2023-04-12T08:41:15.406Z,975.87
2023-04-12T08:42:14.504Z,975.84
2023-04-12T08:43:14.423Z,975.88
2023-04-12T08:44:14.341Z,975.87
2023-04-12T08:45:14.260Z,975.88
2023-04-12T08:46:14.186Z,975.89
2023-04-12T08:47:14.099Z,975.80
2023-04-12T08:48:14.018Z,975.87
2023-04-12T08:49:13.959Z,975.89
2023-04-12T08:50:14.247Z,975.84
2023-04-12T08:51:13.787Z,975.89
2023-04-12T08:52:13.698Z,975.85
2023-04-12T08:53:13.608Z,975.78
2023-04-12T08:54:13.528Z,975.83
2023-04-12T08:55:13.567Z,975.79
2023-04-12T08:56:13.399Z,975.76
2023-04-12T08:57:13.285Z,975.81
2023-04-12T08:58:13.202Z,975.78
2023-04-12T08:59:13.125Z,975.75
2023-04-12T09:00:13.120Z,975.71
2023-04-12T09:01:12.961Z,975.77
2023-04-12T09:02:12.975Z,975.72
2023-04-12T09:03:13.085Z,975.77
2023-04-12T09:04:13.153Z,975.82
2023-04-12T09:05:12.693Z,975.75
2023-04-12T09:06:12.553Z,975.77
2023-04-12T09:07:12.473Z,975.75
2023-04-12T09:08:12.390Z,975.76
2023-04-12T09:09:12.342Z,975.75
2023-04-12T09:10:12.233Z,975.77
2023-04-12T09:11:12.295Z,975.72
2023-04-12T09:12:12.105Z,975.65
2023-04-12T09:13:11.994Z,975.70
2023-04-12T09:14:11.903Z,975.65
2023-04-12T09:15:11.827Z,975.69
2023-04-12T09:16:11.801Z,975.63
2023-04-12T09:17:12.079Z,975.60
2023-04-12T09:18:11.641Z,975.61
2023-04-12T09:19:11.503Z,975.57
2023-04-12T09:20:11.425Z,975.54
2023-04-12T09:21:11.337Z,975.55
2023-04-12T09:22:11.259Z,975.53
2023-04-12T09:23:11.186Z,975.47
2023-04-12T09:24:14.293Z,975.45
2023-04-12T09:25:11.030Z,975.45
2023-04-12T09:26:10.932Z,975.44
2023-04-12T09:27:10.925Z,975.42
2023-04-12T09:28:10.785Z,975.46
2023-04-12T09:29:10.715Z,975.42
2023-04-12T09:30:10.610Z,975.37
2023-04-12T09:31:10.556Z,975.44
2023-04-12T09:32:10.452Z,975.43
2023-04-12T09:33:10.384Z,975.48
2023-04-12T09:34:10.289Z,975.43
2023-04-12T09:35:10.355Z,975.40
2023-04-12T09:36:10.173Z,975.49
2023-04-12T09:37:10.054Z,975.46
2023-04-12T09:38:10.281Z,975.41
2023-04-12T09:39:09.921Z,975.38
2023-04-12T09:40:09.843Z,975.29
2023-04-12T09:41:09.723Z,975.29
2023-04-12T09:42:21.341Z,975.18
2023-04-12T09:43:09.612Z,975.25
2023-04-12T09:44:09.498Z,975.16
2023-04-12T09:45:09.399Z,975.21
2023-04-12T09:46:09.389Z,975.23
2023-04-12T09:47:09.247Z,975.19
2023-04-12T09:48:09.190Z,975.11
2023-04-12T09:49:09.076Z,975.13
2023-04-12T09:50:09.009Z,975.15
2023-04-12T09:51:08.919Z,975.19
2023-04-12T09:52:08.835Z,975.16
2023-04-12T09:53:09.112Z,975.11
2023-04-12T09:54:08.671Z,975.09
2023-04-12T09:55:08.615Z,975.05
2023-04-12T09:56:08.560Z,975.01
2023-04-12T09:57:08.431Z,975.00
2023-04-12T09:58:08.348Z,975.03
2023-04-12T09:59:08.314Z,974.99
2023-04-12T10:00:08.210Z,975.02
2023-04-12T10:01:08.197Z,974.99
2023-04-12T10:02:08.158Z,975.02
2023-04-12T10:03:08.243Z,974.97
2023-04-12T10:04:08.347Z,975.01
2023-04-12T10:05:07.875Z,974.99
2023-04-12T10:06:07.713Z,974.99
2023-04-12T10:07:07.715Z,974.99
2023-04-12T10:08:07.551Z,975.03
2023-04-12T10:09:07.879Z,974.98
2023-04-12T10:10:07.390Z,975.00
2023-04-12T10:11:07.305Z,974.99
2023-04-12T10:12:07.221Z,974.95
2023-04-12T10:13:07.211Z,974.97
2023-04-12T10:14:07.118Z,974.92
2023-04-12T10:15:07.009Z,974.90
2023-04-12T10:16:06.948Z,974.90
2023-04-12T10:17:06.839Z,974.87
2023-04-12T10:18:06.786Z,974.84
2023-04-12T10:19:06.659Z,974.87
2023-04-12T10:20:06.603Z,974.90
2023-04-12T10:21:06.520Z,974.90
2023-04-12T10:22:06.424Z,974.87
2023-04-12T10:23:06.360Z,974.92
2023-04-12T10:24:06.260Z,974.91
2023-04-12T10:25:06.179Z,974.83
2023-04-12T10:26:06.098Z,974.86
2023-04-12T10:27:06.047Z,974.79
2023-04-12T10:28:05.948Z,974.90
2023-04-12T10:29:05.866Z,974.83
2023-04-12T10:30:05.779Z,974.85
2023-04-12T10:31:05.741Z,974.84
2023-04-12T10:32:05.726Z,974.70
2023-04-12T10:33:05.749Z,974.83
2023-04-12T10:34:05.494Z,974.74
2023-04-12T10:35:05.382Z,974.70
2023-04-12T10:36:05.387Z,974.73
2023-04-12T10:37:05.598Z,974.67
2023-04-12T10:38:05.164Z,974.70
2023-04-12T10:39:05.097Z,974.69
2023-04-12T10:40:04.980Z,974.71
2023-04-12T10:41:04.937Z,974.66
2023-04-12T10:42:05.017Z,974.65
2023-04-12T10:43:04.738Z,974.62
2023-04-12T10:44:04.659Z,974.63
2023-04-12T10:45:04.589Z,974.61
2023-04-12T10:46:04.551Z,974.59
2023-04-12T10:47:04.568Z,974.58
2023-04-12T10:48:04.383Z,974.57
2023-04-12T10:49:04.255Z,974.60
2023-04-12T10:50:04.182Z,974.62
2023-04-12T10:51:04.116Z,974.64
2023-04-12T10:52:04.054Z,974.60
2023-04-12T10:53:03.946Z,974.64
2023-04-12T10:54:03.936Z,974.68
2023-04-12T10:55:03.812Z,974.62
2023-04-12T10:56:03.699Z,974.58
2023-04-12T10:57:03.611Z,974.50
2023-04-12T10:58:03.531Z,974.47
2023-04-12T10:59:04.136Z,974.47
2023-04-12T11:00:03.378Z,974.48
2023-04-12T11:01:03.409Z,974.47
2023-04-12T11:02:03.400Z,974.38
2023-04-12T11:03:03.296Z,974.46
2023-04-12T11:04:03.307Z,974.45
2023-04-12T11:05:03.163Z,974.44
2023-04-12T11:06:16.230Z,974.41
2023-04-12T11:07:02.933Z,974.44
2023-04-12T11:08:02.736Z,974.55
2023-04-12T11:09:02.651Z,974.53
2023-04-12T11:10:02.618Z,974.46
2023-04-12T11:11:02.516Z,974.46
2023-04-12T11:12:02.411Z,974.48
2023-04-12T11:13:02.330Z,974.38
2023-04-12T11:14:02.253Z,974.42
2023-04-12T11:15:02.279Z,974.41
2023-04-12T11:16:02.238Z,974.36
2023-04-12T11:17:02.068Z,974.44
2023-04-12T11:18:02.036Z,974.35
2023-04-12T11:19:01.873Z,974.33
2023-04-12T11:20:01.880Z,974.33
2023-04-12T11:21:01.720Z,974.29
2023-04-12T11:22:01.635Z,974.24
2023-04-12T11:23:01.832Z,974.28
2023-04-12T11:24:01.466Z,974.31
2023-04-12T11:25:01.453Z,974.27
2023-04-12T11:26:01.335Z,974.25
2023-04-12T11:27:01.218Z,974.22
2023-04-12T11:28:01.137Z,974.22
2023-04-12T11:29:01.067Z,974.22
2023-04-12T11:30:00.999Z,974.17
2023-04-12T11:31:00.901Z,974.26
2023-04-12T11:32:00.900Z,974.31
2023-04-12T11:33:00.764Z,974.22
2023-04-12T11:34:00.670Z,974.23
2023-04-12T11:35:00.758Z,974.24
2023-04-12T11:36:00.753Z,974.20
2023-04-12T11:37:00.429Z,974.13
2023-04-12T11:38:00.344Z,974.12
2023-04-12T11:39:00.266Z,974.15
2023-04-12T11:40:00.222Z,974.17
2023-04-12T11:41:00.112Z,974.13
2023-04-12T11:42:00.035Z,974.15
2023-04-12T11:42:59.986Z,974.12
2023-04-12T11:43:59.869Z,974.13
2023-04-12T11:45:04.450Z,974.02
2023-04-12T11:45:59.756Z,974.10
2023-04-12T11:46:59.634Z,974.13
2023-04-12T11:47:59.636Z,974.16
2023-04-12T11:48:59.476Z,974.16
2023-04-12T11:49:59.443Z,974.06
2023-04-12T11:51:10.245Z,974.08
2023-04-12T11:51:59.234Z,974.17
2023-04-12T11:52:59.159Z,974.10
2023-04-12T11:53:59.542Z,974.10
2023-04-12T11:54:59.016Z,974.00
2023-04-12T11:55:58.918Z,974.04
2023-04-12T11:56:58.839Z,974.02
2023-04-12T11:57:58.811Z,974.03
2023-04-12T11:58:58.684Z,974.12
2023-04-12T11:59:58.604Z,973.99
2023-04-12T12:00:58.544Z,974.01
2023-04-12T12:01:58.457Z,973.99
2023-04-12T12:16:12.997Z,973.83
2023-04-12T12:17:15.695Z,973.97
2023-04-12T12:18:13.577Z,973.80
2023-04-12T12:19:12.688Z,973.80
2023-04-12T12:20:12.632Z,973.74
2023-04-12T12:21:12.527Z,973.81
2023-04-12T12:22:12.447Z,973.79
2023-04-12T12:23:12.375Z,973.79
2023-04-12T12:24:12.302Z,973.78
2023-04-12T12:25:12.210Z,973.77
2023-04-12T12:26:18.908Z,973.81
2023-04-12T12:27:12.101Z,973.83
2023-04-12T12:28:12.052Z,973.79
2023-04-12T12:29:12.092Z,973.78
2023-04-12T12:30:12.169Z,973.66
2023-04-12T12:31:11.760Z,973.82
2023-04-12T12:32:11.788Z,973.72
2023-04-12T12:33:11.578Z,973.79
2023-04-12T12:34:11.734Z,973.77
2023-04-12T12:35:11.419Z,973.84
2023-04-12T12:36:11.376Z,973.78
2023-04-12T12:37:11.762Z,973.90
2023-04-12T12:38:11.198Z,973.73
2023-04-12T12:39:11.816Z,973.77
2023-04-12T12:40:11.034Z,973.61
2023-04-12T12:41:10.961Z,973.82
2023-04-12T12:42:10.867Z,973.77
2023-04-12T12:43:10.792Z,973.72
2023-04-12T12:44:10.717Z,973.66
2023-04-12T12:45:10.637Z,973.68
2023-04-12T12:46:10.562Z,973.66
2023-04-12T12:47:14.633Z,973.70
2023-04-12T12:48:10.494Z,973.72
2023-04-12T12:49:10.325Z,973.70
2023-04-12T12:50:10.244Z,973.69
2023-04-12T12:51:10.166Z,973.75
2023-04-12T12:52:10.088Z,973.66
2023-04-12T12:54:12.608Z,973.68
2023-04-12T12:55:09.860Z,973.72
2023-04-12T12:56:09.776Z,973.68
2023-04-12T12:57:09.730Z,973.71
2023-04-12T12:58:09.621Z,973.62
2023-04-12T12:59:09.545Z,973.72
2023-04-12T13:01:09.448Z,973.75
2023-04-12T13:02:09.416Z,973.73
2023-04-12T13:03:09.488Z,973.83
2023-04-12T13:04:09.312Z,973.64
2023-04-12T13:05:11.664Z,973.61